Terminal Aerodrome Forecast
Issued by NWS

Home | Current Version | Previous Version | Graphics & Text | Print | Product List | Glossary On
Versions: 1 2 3 4 5 6 7 8 9 10 11 12 13
000
FTUS41 KCLE 171100
TAFFDY
TAF
KFDY 171125Z 1712/1812 14008KT P6SM BKN250
     FM171500 16012G18KT P6SM BKN250
     FM180200 24006KT P6SM SCT040 OVC120=

USA.gov is the U.S. government's official web portal to all federal, state and local government web resources and services.